臺中航空站 - ATIS

METAR RCMQ 200300Z 01023G33KT 9999 VCSH SCT008 BKN025 26/20 Q1006 NOSIG RMK A2971 VCSH N=

站台狀態:Online
最後更新:2019-09-20 11:15:01